Terminal Aerodrome Forecast
Issued by NWS

Home | Current Version | Previous Version | Text Only | Print | Product List | Glossary On
Versions: 1 2 3 4 5 6 7 8 9 10 11 12 13 14 15 16 17 18 19 20 21
000
FTUS41 KBTV 250520
TAFMPV
TAF
KMPV 250520Z 2506/2606 VRB05KT P6SM FEW002 SCT120
      TEMPO 2506/2510 1SM BR FEW120
     FM252000 28009KT P6SM VCSH SCT120
     FM260200 30006KT P6SM BKN120=

USA.gov is the U.S. government's official web portal to all federal, state and local government web resources and services.